sensor_id;sensor_type;location;lat;lon;timestamp;temperature;humidity
6118;DHT22;3089;48.202;11.510;2023-06-19T00:00:14;23.50;91.80
6118;DHT22;3089;48.202;11.510;2023-06-19T00:02:43;23.50;91.80
6118;DHT22;3089;48.202;11.510;2023-06-19T00:05:12;23.50;91.80
6118;DHT22;3089;48.202;11.510;2023-06-19T00:07:40;23.40;91.80
6118;DHT22;3089;48.202;11.510;2023-06-19T00:10:09;23.40;91.90
6118;DHT22;3089;48.202;11.510;2023-06-19T00:12:37;23.30;92.00
6118;DHT22;3089;48.202;11.510;2023-06-19T00:15:06;23.30;92.10
6118;DHT22;3089;48.202;11.510;2023-06-19T00:17:35;23.30;92.10
6118;DHT22;3089;48.202;11.510;2023-06-19T00:20:05;23.30;92.10
6118;DHT22;3089;48.202;11.510;2023-06-19T00:22:33;23.20;92.10
6118;DHT22;3089;48.202;11.510;2023-06-19T00:25:01;23.20;92.20
6118;DHT22;3089;48.202;11.510;2023-06-19T00:27:30;23.20;92.30
6118;DHT22;3089;48.202;11.510;2023-06-19T00:29:58;23.20;92.30
6118;DHT22;3089;48.202;11.510;2023-06-19T00:32:29;23.20;92.30
6118;DHT22;3089;48.202;11.510;2023-06-19T00:34:57;23.20;92.40
6118;DHT22;3089;48.202;11.510;2023-06-19T00:37:27;23.20;92.30
6118;DHT22;3089;48.202;11.510;2023-06-19T00:39:58;23.20;92.30
6118;DHT22;3089;48.202;11.510;2023-06-19T00:42:26;23.20;92.30
6118;DHT22;3089;48.202;11.510;2023-06-19T00:44:55;23.20;92.40
6118;DHT22;3089;48.202;11.510;2023-06-19T00:47:23;23.20;92.50
6118;DHT22;3089;48.202;11.510;2023-06-19T00:49:52;23.10;92.50
6118;DHT22;3089;48.202;11.510;2023-06-19T00:52:20;23.10;92.50
6118;DHT22;3089;48.202;11.510;2023-06-19T00:54:48;23.10;92.60
6118;DHT22;3089;48.202;11.510;2023-06-19T00:57:16;23.00;92.60
6118;DHT22;3089;48.202;11.510;2023-06-19T00:59:44;23.00;92.70
6118;DHT22;3089;48.202;11.510;2023-06-19T01:02:13;22.90;92.70
6118;DHT22;3089;48.202;11.510;2023-06-19T01:04:44;22.90;92.70
6118;DHT22;3089;48.202;11.510;2023-06-19T01:07:15;23.00;92.80
6118;DHT22;3089;48.202;11.510;2023-06-19T01:09:46;22.90;92.90
6118;DHT22;3089;48.202;11.510;2023-06-19T01:12:19;22.90;92.90
6118;DHT22;3089;48.202;11.510;2023-06-19T01:14:54;22.90;93.00
6118;DHT22;3089;48.202;11.510;2023-06-19T01:17:24;22.90;93.10
6118;DHT22;3089;48.202;11.510;2023-06-19T01:19:53;22.90;93.10
6118;DHT22;3089;48.202;11.510;2023-06-19T01:22:27;22.80;93.20
6118;DHT22;3089;48.202;11.510;2023-06-19T01:24:55;22.90;93.30
6118;DHT22;3089;48.202;11.510;2023-06-19T01:27:24;22.80;93.20
6118;DHT22;3089;48.202;11.510;2023-06-19T01:29:52;22.70;93.30
6118;DHT22;3089;48.202;11.510;2023-06-19T01:32:26;22.70;93.40
6118;DHT22;3089;48.202;11.510;2023-06-19T01:34:57;22.70;93.50
6118;DHT22;3089;48.202;11.510;2023-06-19T01:37:27;22.80;93.50
6118;DHT22;3089;48.202;11.510;2023-06-19T01:39:57;22.70;93.60
6118;DHT22;3089;48.202;11.510;2023-06-19T01:42:26;22.70;93.60
6118;DHT22;3089;48.202;11.510;2023-06-19T01:44:54;22.70;93.60
6118;DHT22;3089;48.202;11.510;2023-06-19T01:47:22;22.70;93.70
6118;DHT22;3089;48.202;11.510;2023-06-19T01:49:50;22.80;93.90
6118;DHT22;3089;48.202;11.510;2023-06-19T01:52:18;22.80;93.50
6118;DHT22;3089;48.202;11.510;2023-06-19T01:54:47;22.70;93.70
6118;DHT22;3089;48.202;11.510;2023-06-19T01:57:15;22.70;93.70
6118;DHT22;3089;48.202;11.510;2023-06-19T01:59:43;22.70;93.70
6118;DHT22;3089;48.202;11.510;2023-06-19T02:02:11;22.70;93.70
6118;DHT22;3089;48.202;11.510;2023-06-19T02:04:39;22.60;93.80
6118;DHT22;3089;48.202;11.510;2023-06-19T02:07:07;22.50;93.80
6118;DHT22;3089;48.202;11.510;2023-06-19T02:09:37;22.40;93.90
6118;DHT22;3089;48.202;11.510;2023-06-19T02:12:07;22.50;94.00
6118;DHT22;3089;48.202;11.510;2023-06-19T02:14:35;22.40;93.90
6118;DHT22;3089;48.202;11.510;2023-06-19T02:17:03;22.40;94.00
6118;DHT22;3089;48.202;11.510;2023-06-19T02:19:31;22.50;94.00
6118;DHT22;3089;48.202;11.510;2023-06-19T02:21:59;22.40;94.00
6118;DHT22;3089;48.202;11.510;2023-06-19T02:24:27;22.40;94.10
6118;DHT22;3089;48.202;11.510;2023-06-19T02:26:55;22.50;94.20
6118;DHT22;3089;48.202;11.510;2023-06-19T02:29:24;22.50;94.20
6118;DHT22;3089;48.202;11.510;2023-06-19T02:31:52;22.50;94.10
6118;DHT22;3089;48.202;11.510;2023-06-19T02:34:20;22.40;94.20
6118;DHT22;3089;48.202;11.510;2023-06-19T02:36:50;22.40;94.30
6118;DHT22;3089;48.202;11.510;2023-06-19T02:39:18;22.40;94.30
6118;DHT22;3089;48.202;11.510;2023-06-19T02:41:46;22.40;94.40
6118;DHT22;3089;48.202;11.510;2023-06-19T02:44:14;22.40;94.40
6118;DHT22;3089;48.202;11.510;2023-06-19T02:46:43;22.30;94.50
6118;DHT22;3089;48.202;11.510;2023-06-19T02:49:11;22.20;94.50
6118;DHT22;3089;48.202;11.510;2023-06-19T02:51:39;22.30;95.00
6118;DHT22;3089;48.202;11.510;2023-06-19T02:54:08;22.30;94.60
6118;DHT22;3089;48.202;11.510;2023-06-19T02:56:37;22.20;94.70
6118;DHT22;3089;48.202;11.510;2023-06-19T02:59:06;22.30;94.70
6118;DHT22;3089;48.202;11.510;2023-06-19T03:01:33;22.20;94.70
6118;DHT22;3089;48.202;11.510;2023-06-19T03:04:03;22.20;94.80
6118;DHT22;3089;48.202;11.510;2023-06-19T03:06:31;22.20;94.80
6118;DHT22;3089;48.202;11.510;2023-06-19T03:09:00;22.20;94.90
6118;DHT22;3089;48.202;11.510;2023-06-19T03:11:27;22.10;95.00
6118;DHT22;3089;48.202;11.510;2023-06-19T03:13:56;22.10;95.00
6118;DHT22;3089;48.202;11.510;2023-06-19T03:16:24;22.10;95.00
6118;DHT22;3089;48.202;11.510;2023-06-19T03:18:52;22.10;95.10
6118;DHT22;3089;48.202;11.510;2023-06-19T03:21:21;22.10;95.20
6118;DHT22;3089;48.202;11.510;2023-06-19T03:23:49;22.10;95.30
6118;DHT22;3089;48.202;11.510;2023-06-19T03:26:18;22.10;95.40
6118;DHT22;3089;48.202;11.510;2023-06-19T03:28:46;22.00;95.40
6118;DHT22;3089;48.202;11.510;2023-06-19T03:31:14;22.00;95.40
6118;DHT22;3089;48.202;11.510;2023-06-19T03:33:42;22.10;95.40
6118;DHT22;3089;48.202;11.510;2023-06-19T03:36:10;22.10;95.50
6118;DHT22;3089;48.202;11.510;2023-06-19T03:38:39;22.10;95.50
6118;DHT22;3089;48.202;11.510;2023-06-19T03:41:07;22.00;95.60
6118;DHT22;3089;48.202;11.510;2023-06-19T03:43:35;22.00;95.70
6118;DHT22;3089;48.202;11.510;2023-06-19T03:46:03;22.00;95.70
6118;DHT22;3089;48.202;11.510;2023-06-19T03:48:31;22.00;95.70
6118;DHT22;3089;48.202;11.510;2023-06-19T03:50:59;22.00;95.80
6118;DHT22;3089;48.202;11.510;2023-06-19T03:53:27;22.00;95.80
6118;DHT22;3089;48.202;11.510;2023-06-19T03:55:56;22.00;95.90
6118;DHT22;3089;48.202;11.510;2023-06-19T03:58:24;21.90;95.90
6118;DHT22;3089;48.202;11.510;2023-06-19T04:00:52;21.90;95.90
6118;DHT22;3089;48.202;11.510;2023-06-19T04:03:20;21.90;96.00
6118;DHT22;3089;48.202;11.510;2023-06-19T04:05:48;21.90;96.00
6118;DHT22;3089;48.202;11.510;2023-06-19T04:08:16;21.90;96.10
6118;DHT22;3089;48.202;11.510;2023-06-19T04:10:44;21.90;96.10
6118;DHT22;3089;48.202;11.510;2023-06-19T04:13:13;21.90;96.10
6118;DHT22;3089;48.202;11.510;2023-06-19T04:15:41;21.90;96.20
6118;DHT22;3089;48.202;11.510;2023-06-19T04:18:13;21.80;96.20
6118;DHT22;3089;48.202;11.510;2023-06-19T04:20:41;21.80;96.40
6118;DHT22;3089;48.202;11.510;2023-06-19T04:23:09;21.80;96.40
6118;DHT22;3089;48.202;11.510;2023-06-19T04:25:37;21.80;96.50
6118;DHT22;3089;48.202;11.510;2023-06-19T04:28:05;21.80;96.70
6118;DHT22;3089;48.202;11.510;2023-06-19T04:30:34;21.80;96.80
6118;DHT22;3089;48.202;11.510;2023-06-19T04:33:02;21.70;97.00
6118;DHT22;3089;48.202;11.510;2023-06-19T04:35:31;21.70;97.20
6118;DHT22;3089;48.202;11.510;2023-06-19T04:37:59;21.70;97.40
6118;DHT22;3089;48.202;11.510;2023-06-19T04:40:27;21.70;97.30
6118;DHT22;3089;48.202;11.510;2023-06-19T04:42:55;21.70;97.40
6118;DHT22;3089;48.202;11.510;2023-06-19T04:45:23;21.80;97.60
6118;DHT22;3089;48.202;11.510;2023-06-19T04:47:52;21.70;97.60
6118;DHT22;3089;48.202;11.510;2023-06-19T04:50:20;21.40;98.00
6118;DHT22;3089;48.202;11.510;2023-06-19T04:52:49;21.60;98.30
6118;DHT22;3089;48.202;11.510;2023-06-19T04:55:18;21.70;98.10
6118;DHT22;3089;48.202;11.510;2023-06-19T04:57:46;21.70;98.20
6118;DHT22;3089;48.202;11.510;2023-06-19T05:00:15;21.60;98.00
6118;DHT22;3089;48.202;11.510;2023-06-19T05:02:45;21.70;98.20
6118;DHT22;3089;48.202;11.510;2023-06-19T05:05:15;21.60;98.20
6118;DHT22;3089;48.202;11.510;2023-06-19T05:07:44;21.70;98.40
6118;DHT22;3089;48.202;11.510;2023-06-19T05:10:13;21.70;98.40
6118;DHT22;3089;48.202;11.510;2023-06-19T05:12:40;21.70;98.40
6118;DHT22;3089;48.202;11.510;2023-06-19T05:15:09;21.70;98.50
6118;DHT22;3089;48.202;11.510;2023-06-19T05:17:37;21.80;98.50
6118;DHT22;3089;48.202;11.510;2023-06-19T05:20:07;21.70;98.80
6118;DHT22;3089;48.202;11.510;2023-06-19T05:22:36;21.70;99.00
6118;DHT22;3089;48.202;11.510;2023-06-19T05:25:05;21.70;98.80
6118;DHT22;3089;48.202;11.510;2023-06-19T05:27:33;21.50;99.10
6118;DHT22;3089;48.202;11.510;2023-06-19T05:30:01;21.60;99.10
6118;DHT22;3089;48.202;11.510;2023-06-19T05:32:29;21.60;99.00
6118;DHT22;3089;48.202;11.510;2023-06-19T05:34:57;21.60;99.40
6118;DHT22;3089;48.202;11.510;2023-06-19T05:37:25;21.40;99.70
6118;DHT22;3089;48.202;11.510;2023-06-19T05:39:55;21.40;99.80
6118;DHT22;3089;48.202;11.510;2023-06-19T05:42:23;21.50;99.60
6118;DHT22;3089;48.202;11.510;2023-06-19T05:44:51;21.60;99.40
6118;DHT22;3089;48.202;11.510;2023-06-19T05:47:19;21.60;99.50
6118;DHT22;3089;48.202;11.510;2023-06-19T05:49:48;21.60;99.40
6118;DHT22;3089;48.202;11.510;2023-06-19T05:52:15;21.70;99.30
6118;DHT22;3089;48.202;11.510;2023-06-19T05:54:43;21.80;99.20
6118;DHT22;3089;48.202;11.510;2023-06-19T05:57:13;21.70;99.90
6118;DHT22;3089;48.202;11.510;2023-06-19T05:59:42;21.60;99.40
6118;DHT22;3089;48.202;11.510;2023-06-19T06:02:10;21.60;99.90
6118;DHT22;3089;48.202;11.510;2023-06-19T06:04:38;21.80;99.50
6118;DHT22;3089;48.202;11.510;2023-06-19T06:07:06;21.80;99.30
6118;DHT22;3089;48.202;11.510;2023-06-19T06:09:34;21.70;99.90
6118;DHT22;3089;48.202;11.510;2023-06-19T06:12:02;21.60;99.90
6118;DHT22;3089;48.202;11.510;2023-06-19T06:14:32;21.70;99.50
6118;DHT22;3089;48.202;11.510;2023-06-19T06:17:00;21.90;99.20
6118;DHT22;3089;48.202;11.510;2023-06-19T06:19:28;22.20;98.90
6118;DHT22;3089;48.202;11.510;2023-06-19T06:21:58;22.50;99.00
6118;DHT22;3089;48.202;11.510;2023-06-19T06:24:26;22.90;99.00
6118;DHT22;3089;48.202;11.510;2023-06-19T06:26:54;25.10;96.70
6118;DHT22;3089;48.202;11.510;2023-06-19T06:29:22;25.30;97.40
6118;DHT22;3089;48.202;11.510;2023-06-19T06:31:51;25.10;96.20
6118;DHT22;3089;48.202;11.510;2023-06-19T06:34:20;24.80;95.70
6118;DHT22;3089;48.202;11.510;2023-06-19T06:36:47;24.10;96.10
6118;DHT22;3089;48.202;11.510;2023-06-19T06:39:31;23.50;96.70
6118;DHT22;3089;48.202;11.510;2023-06-19T06:41:59;23.10;97.10
6118;DHT22;3089;48.202;11.510;2023-06-19T06:44:27;23.00;97.30
6118;DHT22;3089;48.202;11.510;2023-06-19T06:46:56;22.80;98.00
6118;DHT22;3089;48.202;11.510;2023-06-19T06:49:24;22.80;97.70
6118;DHT22;3089;48.202;11.510;2023-06-19T06:51:52;22.80;97.70
6118;DHT22;3089;48.202;11.510;2023-06-19T06:54:23;22.80;98.30
6118;DHT22;3089;48.202;11.510;2023-06-19T06:56:51;22.80;97.60
6118;DHT22;3089;48.202;11.510;2023-06-19T06:59:22;23.00;98.60
6118;DHT22;3089;48.202;11.510;2023-06-19T07:01:50;23.20;97.40
6118;DHT22;3089;48.202;11.510;2023-06-19T07:04:19;23.30;97.30
6118;DHT22;3089;48.202;11.510;2023-06-19T07:06:47;23.10;97.50
6118;DHT22;3089;48.202;11.510;2023-06-19T07:09:15;23.00;98.00
6118;DHT22;3089;48.202;11.510;2023-06-19T07:11:43;23.00;97.60
6118;DHT22;3089;48.202;11.510;2023-06-19T07:14:11;23.30;97.50
6118;DHT22;3089;48.202;11.510;2023-06-19T07:16:39;23.30;97.50
6118;DHT22;3089;48.202;11.510;2023-06-19T07:19:07;23.10;97.70
6118;DHT22;3089;48.202;11.510;2023-06-19T07:21:36;23.20;97.60
6118;DHT22;3089;48.202;11.510;2023-06-19T07:24:05;23.30;97.70
6118;DHT22;3089;48.202;11.510;2023-06-19T07:26:33;23.40;97.40
6118;DHT22;3089;48.202;11.510;2023-06-19T07:29:01;24.00;99.10
6118;DHT22;3089;48.202;11.510;2023-06-19T07:31:29;23.90;96.70
6118;DHT22;3089;48.202;11.510;2023-06-19T07:33:57;24.00;97.00
6118;DHT22;3089;48.202;11.510;2023-06-19T07:36:24;25.50;96.10
6118;DHT22;3089;48.202;11.510;2023-06-19T07:38:55;24.70;95.90
6118;DHT22;3089;48.202;11.510;2023-06-19T07:41:23;25.70;96.10
6118;DHT22;3089;48.202;11.510;2023-06-19T07:43:51;24.90;95.40
6118;DHT22;3089;48.202;11.510;2023-06-19T07:46:19;24.30;96.40
6118;DHT22;3089;48.202;11.510;2023-06-19T07:48:47;24.00;96.90
6118;DHT22;3089;48.202;11.510;2023-06-19T07:51:14;24.20;98.20
6118;DHT22;3089;48.202;11.510;2023-06-19T07:53:42;24.30;97.90
6118;DHT22;3089;48.202;11.510;2023-06-19T07:56:12;24.30;97.80
6118;DHT22;3089;48.202;11.510;2023-06-19T07:58:40;24.50;96.80
6118;DHT22;3089;48.202;11.510;2023-06-19T08:01:08;24.60;97.40
6118;DHT22;3089;48.202;11.510;2023-06-19T08:03:36;24.50;96.60
6118;DHT22;3089;48.202;11.510;2023-06-19T08:06:05;24.50;97.20
6118;DHT22;3089;48.202;11.510;2023-06-19T08:08:33;25.00;96.40
6118;DHT22;3089;48.202;11.510;2023-06-19T08:11:00;25.00;97.10
6118;DHT22;3089;48.202;11.510;2023-06-19T08:13:30;25.00;97.00
6118;DHT22;3089;48.202;11.510;2023-06-19T08:15:57;25.10;99.40
6118;DHT22;3089;48.202;11.510;2023-06-19T08:18:25;25.00;96.50
6118;DHT22;3089;48.202;11.510;2023-06-19T08:20:54;24.70;96.70
6118;DHT22;3089;48.202;11.510;2023-06-19T08:23:22;24.80;96.90
6118;DHT22;3089;48.202;11.510;2023-06-19T08:25:50;24.80;97.00
6118;DHT22;3089;48.202;11.510;2023-06-19T08:28:18;25.30;98.30
6118;DHT22;3089;48.202;11.510;2023-06-19T08:30:47;25.40;96.80
6118;DHT22;3089;48.202;11.510;2023-06-19T08:33:15;25.50;97.00
6118;DHT22;3089;48.202;11.510;2023-06-19T08:35:43;25.90;95.90
6118;DHT22;3089;48.202;11.510;2023-06-19T08:38:13;26.00;97.20
6118;DHT22;3089;48.202;11.510;2023-06-19T08:40:41;26.30;95.60
6118;DHT22;3089;48.202;11.510;2023-06-19T08:43:09;27.40;94.00
6118;DHT22;3089;48.202;11.510;2023-06-19T08:45:37;27.90;94.30
6118;DHT22;3089;48.202;11.510;2023-06-19T08:48:06;27.30;93.60
6118;DHT22;3089;48.202;11.510;2023-06-19T08:50:35;26.50;94.50
6118;DHT22;3089;48.202;11.510;2023-06-19T08:53:03;26.40;94.70
6118;DHT22;3089;48.202;11.510;2023-06-19T08:55:31;26.30;95.00
6118;DHT22;3089;48.202;11.510;2023-06-19T08:57:58;26.20;94.70
6118;DHT22;3089;48.202;11.510;2023-06-19T09:00:27;26.10;95.00
6118;DHT22;3089;48.202;11.510;2023-06-19T09:02:59;26.10;94.90
6118;DHT22;3089;48.202;11.510;2023-06-19T09:05:42;25.90;95.10
6118;DHT22;3089;48.202;11.510;2023-06-19T09:08:17;25.60;95.10
6118;DHT22;3089;48.202;11.510;2023-06-19T09:10:55;25.60;95.80
6118;DHT22;3089;48.202;11.510;2023-06-19T09:13:23;25.50;95.70
6118;DHT22;3089;48.202;11.510;2023-06-19T09:15:58;25.40;95.90
6118;DHT22;3089;48.202;11.510;2023-06-19T09:18:26;25.50;96.00
6118;DHT22;3089;48.202;11.510;2023-06-19T09:20:56;25.60;96.00
6118;DHT22;3089;48.202;11.510;2023-06-19T09:23:23;25.60;96.20
6118;DHT22;3089;48.202;11.510;2023-06-19T09:25:53;25.50;96.60
6118;DHT22;3089;48.202;11.510;2023-06-19T09:28:23;25.40;96.30
6118;DHT22;3089;48.202;11.510;2023-06-19T09:30:56;25.40;97.10
6118;DHT22;3089;48.202;11.510;2023-06-19T09:33:25;25.50;96.80
6118;DHT22;3089;48.202;11.510;2023-06-19T09:35:56;25.50;96.60
6118;DHT22;3089;48.202;11.510;2023-06-19T09:38:25;25.70;96.70
6118;DHT22;3089;48.202;11.510;2023-06-19T09:40:54;26.00;96.80
6118;DHT22;3089;48.202;11.510;2023-06-19T09:43:24;26.10;97.00
6118;DHT22;3089;48.202;11.510;2023-06-19T09:45:55;25.80;96.90
6118;DHT22;3089;48.202;11.510;2023-06-19T09:48:27;25.90;98.00
6118;DHT22;3089;48.202;11.510;2023-06-19T09:51:01;25.80;96.90
6118;DHT22;3089;48.202;11.510;2023-06-19T09:53:30;27.00;96.00
6118;DHT22;3089;48.202;11.510;2023-06-19T09:55:59;27.30;95.70
6118;DHT22;3089;48.202;11.510;2023-06-19T09:58:27;28.10;94.80
6118;DHT22;3089;48.202;11.510;2023-06-19T10:00:56;27.70;94.10
6118;DHT22;3089;48.202;11.510;2023-06-19T10:03:30;28.10;94.10
6118;DHT22;3089;48.202;11.510;2023-06-19T10:06:01;28.60;94.20
6118;DHT22;3089;48.202;11.510;2023-06-19T10:08:31;28.00;93.80
6118;DHT22;3089;48.202;11.510;2023-06-19T10:10:59;27.60;94.60
6118;DHT22;3089;48.202;11.510;2023-06-19T10:13:34;28.20;94.10
6118;DHT22;3089;48.202;11.510;2023-06-19T10:16:03;28.50;94.20
6118;DHT22;3089;48.202;11.510;2023-06-19T10:18:32;28.90;93.80
6118;DHT22;3089;48.202;11.510;2023-06-19T10:21:01;28.70;93.30
6118;DHT22;3089;48.202;11.510;2023-06-19T10:23:35;28.20;92.60
6118;DHT22;3089;48.202;11.510;2023-06-19T10:26:06;28.30;93.50
6118;DHT22;3089;48.202;11.510;2023-06-19T10:28:34;28.10;93.00
6118;DHT22;3089;48.202;11.510;2023-06-19T10:31:03;28.20;93.90
6118;DHT22;3089;48.202;11.510;2023-06-19T10:33:33;28.40;93.10
6118;DHT22;3089;48.202;11.510;2023-06-19T10:36:13;28.40;93.20
6118;DHT22;3089;48.202;11.510;2023-06-19T10:38:41;28.40;93.10
6118;DHT22;3089;48.202;11.510;2023-06-19T10:41:15;28.30;92.30
6118;DHT22;3089;48.202;11.510;2023-06-19T10:43:52;28.60;93.00
6118;DHT22;3089;48.202;11.510;2023-06-19T10:46:21;29.00;93.10
6118;DHT22;3089;48.202;11.510;2023-06-19T10:48:50;29.10;92.50
6118;DHT22;3089;48.202;11.510;2023-06-19T10:51:19;28.80;90.20
6118;DHT22;3089;48.202;11.510;2023-06-19T10:53:47;28.60;92.60
6118;DHT22;3089;48.202;11.510;2023-06-19T10:56:15;28.70;91.10
6118;DHT22;3089;48.202;11.510;2023-06-19T10:58:47;28.20;91.90
6118;DHT22;3089;48.202;11.510;2023-06-19T11:01:15;28.70;92.50
6118;DHT22;3089;48.202;11.510;2023-06-19T11:03:43;28.90;92.70
6118;DHT22;3089;48.202;11.510;2023-06-19T11:06:11;28.60;90.30
6118;DHT22;3089;48.202;11.510;2023-06-19T11:08:40;28.00;92.60
6118;DHT22;3089;48.202;11.510;2023-06-19T11:11:08;29.10;91.50
6118;DHT22;3089;48.202;11.510;2023-06-19T11:13:36;29.20;91.70
6118;DHT22;3089;48.202;11.510;2023-06-19T11:16:04;28.10;88.50
6118;DHT22;3089;48.202;11.510;2023-06-19T11:18:32;28.60;90.10
6118;DHT22;3089;48.202;11.510;2023-06-19T11:21:01;29.20;91.80
6118;DHT22;3089;48.202;11.510;2023-06-19T11:23:30;29.10;91.70
6118;DHT22;3089;48.202;11.510;2023-06-19T11:26:04;28.80;91.50
6118;DHT22;3089;48.202;11.510;2023-06-19T11:28:32;28.40;90.10
6118;DHT22;3089;48.202;11.510;2023-06-19T11:31:01;28.70;92.00
6118;DHT22;3089;48.202;11.510;2023-06-19T11:33:30;29.00;91.40
6118;DHT22;3089;48.202;11.510;2023-06-19T11:36:00;29.30;91.30
6118;DHT22;3089;48.202;11.510;2023-06-19T11:38:29;29.20;91.80
6118;DHT22;3089;48.202;11.510;2023-06-19T11:40:57;28.50;88.60
6118;DHT22;3089;48.202;11.510;2023-06-19T11:43:27;28.90;91.80
6118;DHT22;3089;48.202;11.510;2023-06-19T11:46:01;29.20;91.60
6118;DHT22;3089;48.202;11.510;2023-06-19T11:48:30;29.00;91.30
6118;DHT22;3089;48.202;11.510;2023-06-19T11:50:58;28.60;92.70
6118;DHT22;3089;48.202;11.510;2023-06-19T11:53:26;29.10;91.60
6118;DHT22;3089;48.202;11.510;2023-06-19T11:55:54;29.50;91.80
6118;DHT22;3089;48.202;11.510;2023-06-19T11:58:23;29.80;90.50
6118;DHT22;3089;48.202;11.510;2023-06-19T12:00:53;29.00;89.70
6118;DHT22;3089;48.202;11.510;2023-06-19T12:03:23;29.80;91.60
6118;DHT22;3089;48.202;11.510;2023-06-19T12:05:51;29.60;91.60
6118;DHT22;3089;48.202;11.510;2023-06-19T12:08:19;30.00;90.80
6118;DHT22;3089;48.202;11.510;2023-06-19T12:10:48;29.30;90.10
6118;DHT22;3089;48.202;11.510;2023-06-19T12:13:16;28.30;87.90
6118;DHT22;3089;48.202;11.510;2023-06-19T12:15:44;30.00;90.10
6118;DHT22;3089;48.202;11.510;2023-06-19T12:18:13;29.60;90.50
6118;DHT22;3089;48.202;11.510;2023-06-19T12:20:41;29.40;91.40
6118;DHT22;3089;48.202;11.510;2023-06-19T12:23:09;30.00;91.20
6118;DHT22;3089;48.202;11.510;2023-06-19T12:25:37;29.80;90.50
6118;DHT22;3089;48.202;11.510;2023-06-19T12:28:05;29.80;90.90
6118;DHT22;3089;48.202;11.510;2023-06-19T12:30:36;29.70;91.00
6118;DHT22;3089;48.202;11.510;2023-06-19T12:33:04;29.30;91.50
6118;DHT22;3089;48.202;11.510;2023-06-19T12:35:34;29.30;89.40
6118;DHT22;3089;48.202;11.510;2023-06-19T12:38:02;29.60;90.80
6118;DHT22;3089;48.202;11.510;2023-06-19T12:40:33;30.00;90.50
6118;DHT22;3089;48.202;11.510;2023-06-19T12:43:00;29.90;91.80
6118;DHT22;3089;48.202;11.510;2023-06-19T12:45:29;29.00;86.50
6118;DHT22;3089;48.202;11.510;2023-06-19T12:47:57;29.50;91.60
6118;DHT22;3089;48.202;11.510;2023-06-19T12:50:25;29.80;87.90
6118;DHT22;3089;48.202;11.510;2023-06-19T12:52:55;29.90;90.10
6118;DHT22;3089;48.202;11.510;2023-06-19T12:55:22;30.00;90.50
6118;DHT22;3089;48.202;11.510;2023-06-19T12:57:50;30.10;91.00
6118;DHT22;3089;48.202;11.510;2023-06-19T13:00:18;31.00;91.00
6118;DHT22;3089;48.202;11.510;2023-06-19T13:02:46;30.80;89.90
6118;DHT22;3089;48.202;11.510;2023-06-19T13:05:14;30.20;90.00
6118;DHT22;3089;48.202;11.510;2023-06-19T13:07:42;30.40;90.40
6118;DHT22;3089;48.202;11.510;2023-06-19T13:10:11;29.70;89.80
6118;DHT22;3089;48.202;11.510;2023-06-19T13:12:39;29.70;91.00
6118;DHT22;3089;48.202;11.510;2023-06-19T13:15:08;30.30;90.90
6118;DHT22;3089;48.202;11.510;2023-06-19T13:17:36;30.00;90.30
6118;DHT22;3089;48.202;11.510;2023-06-19T13:20:06;30.20;91.00
6118;DHT22;3089;48.202;11.510;2023-06-19T13:22:34;30.00;90.90
6118;DHT22;3089;48.202;11.510;2023-06-19T13:25:02;30.00;90.60
6118;DHT22;3089;48.202;11.510;2023-06-19T13:27:31;29.70;88.70
6118;DHT22;3089;48.202;11.510;2023-06-19T13:30:00;29.80;88.50
6118;DHT22;3089;48.202;11.510;2023-06-19T13:32:28;30.60;91.00
6118;DHT22;3089;48.202;11.510;2023-06-19T13:34:56;30.20;90.10
6118;DHT22;3089;48.202;11.510;2023-06-19T13:37:24;29.90;90.10
6118;DHT22;3089;48.202;11.510;2023-06-19T13:39:52;30.60;91.00
6118;DHT22;3089;48.202;11.510;2023-06-19T13:42:20;30.10;85.50
6118;DHT22;3089;48.202;11.510;2023-06-19T13:44:49;30.20;86.00
6118;DHT22;3089;48.202;11.510;2023-06-19T13:47:17;30.70;88.30
6118;DHT22;3089;48.202;11.510;2023-06-19T13:49:45;30.20;88.50
6118;DHT22;3089;48.202;11.510;2023-06-19T13:52:13;30.10;88.60
6118;DHT22;3089;48.202;11.510;2023-06-19T13:54:41;29.10;85.10
6118;DHT22;3089;48.202;11.510;2023-06-19T13:57:08;29.40;85.40
6118;DHT22;3089;48.202;11.510;2023-06-19T13:59:36;29.80;89.90
6118;DHT22;3089;48.202;11.510;2023-06-19T14:02:06;29.90;88.50
6118;DHT22;3089;48.202;11.510;2023-06-19T14:04:35;30.60;86.80
6118;DHT22;3089;48.202;11.510;2023-06-19T14:07:03;30.10;89.70
6118;DHT22;3089;48.202;11.510;2023-06-19T14:09:32;30.70;90.30
6118;DHT22;3089;48.202;11.510;2023-06-19T14:12:00;30.70;87.40
6118;DHT22;3089;48.202;11.510;2023-06-19T14:14:28;29.80;86.30
6118;DHT22;3089;48.202;11.510;2023-06-19T14:16:55;30.10;89.60
6118;DHT22;3089;48.202;11.510;2023-06-19T14:19:26;30.60;90.10
6118;DHT22;3089;48.202;11.510;2023-06-19T14:21:55;30.60;87.50
6118;DHT22;3089;48.202;11.510;2023-06-19T14:24:23;30.70;88.40
6118;DHT22;3089;48.202;11.510;2023-06-19T14:26:54;30.70;84.80
6118;DHT22;3089;48.202;11.510;2023-06-19T14:29:22;30.60;90.00
6118;DHT22;3089;48.202;11.510;2023-06-19T14:31:50;30.60;89.20
6118;DHT22;3089;48.202;11.510;2023-06-19T14:34:19;30.40;89.10
6118;DHT22;3089;48.202;11.510;2023-06-19T14:36:48;29.20;86.00
6118;DHT22;3089;48.202;11.510;2023-06-19T14:39:16;29.80;90.00
6118;DHT22;3089;48.202;11.510;2023-06-19T14:41:44;30.20;89.10
6118;DHT22;3089;48.202;11.510;2023-06-19T14:44:12;30.40;90.50
6118;DHT22;3089;48.202;11.510;2023-06-19T14:46:40;29.80;84.90
6118;DHT22;3089;48.202;11.510;2023-06-19T14:49:10;29.90;88.70
6118;DHT22;3089;48.202;11.510;2023-06-19T14:51:39;30.50;87.60
6118;DHT22;3089;48.202;11.510;2023-06-19T14:54:08;30.40;85.70
6118;DHT22;3089;48.202;11.510;2023-06-19T14:56:36;30.70;90.00
6118;DHT22;3089;48.202;11.510;2023-06-19T14:59:04;30.80;85.90
6118;DHT22;3089;48.202;11.510;2023-06-19T15:01:32;30.00;86.20
6118;DHT22;3089;48.202;11.510;2023-06-19T15:04:00;29.90;86.70
6118;DHT22;3089;48.202;11.510;2023-06-19T15:06:28;29.90;87.00
6118;DHT22;3089;48.202;11.510;2023-06-19T15:08:56;29.80;88.60
6118;DHT22;3089;48.202;11.510;2023-06-19T15:11:26;29.90;88.20
6118;DHT22;3089;48.202;11.510;2023-06-19T15:13:53;30.20;89.80
6118;DHT22;3089;48.202;11.510;2023-06-19T15:16:21;30.00;89.40
6118;DHT22;3089;48.202;11.510;2023-06-19T15:18:52;30.00;88.60
6118;DHT22;3089;48.202;11.510;2023-06-19T15:21:20;30.20;90.20
6118;DHT22;3089;48.202;11.510;2023-06-19T15:23:48;30.00;87.40
6118;DHT22;3089;48.202;11.510;2023-06-19T15:26:16;30.00;87.80
6118;DHT22;3089;48.202;11.510;2023-06-19T15:28:45;29.60;86.10
6118;DHT22;3089;48.202;11.510;2023-06-19T15:31:14;29.30;86.20
6118;DHT22;3089;48.202;11.510;2023-06-19T15:33:43;29.50;89.50
6118;DHT22;3089;48.202;11.510;2023-06-19T15:36:11;29.50;87.00
6118;DHT22;3089;48.202;11.510;2023-06-19T15:38:38;30.00;90.00
6118;DHT22;3089;48.202;11.510;2023-06-19T15:41:06;29.50;87.70
6118;DHT22;3089;48.202;11.510;2023-06-19T15:43:34;29.60;90.20
6118;DHT22;3089;48.202;11.510;2023-06-19T15:46:03;29.40;88.00
6118;DHT22;3089;48.202;11.510;2023-06-19T15:48:34;29.10;88.20
6118;DHT22;3089;48.202;11.510;2023-06-19T15:51:02;29.40;88.70
6118;DHT22;3089;48.202;11.510;2023-06-19T15:53:30;29.70;90.00